Awosting, New Jersey
Current Conditions -  °F | °C
As of 2:14 AM on Friday 19 Dec 2014 (Local Time) from KFWN Reporting Station
Overcast Overcast  
Wind Chill: 35°   Ceiling: 2900
Heat Index: 35°   Visibility: 10mi
Dew Point: 25°   Wind: 0mph
Humidity: 67%   Direction: NA
Pressure: 29.97"   Gusts: NA
Location:  41.1652°N, 74.3769°W
Report Text: KFWN 190714Z AUTO 00000KT 10SM OVC029 02/M04 A2997 RMK AO2 T00171039
Loading
Personal Weather Stations






























Interactive Weather Map New forecast layout! Learn more

10-Day Weather Forecast

Advertisements
Track Severe Weather on mobile